Time;durP1;ratioP1;P1;durP2;ratioP2;P2;SDS_P1;SDS_P2;PMS_P1;PMS_P2;Temp;Humidity;BMP_temperature;BMP_pressure;BME280_temperature;BME280_humidity;BME280_pressure;Samples;Min_cycle;Max_cycle;Signal;HPM_P1;HPM_P2
2024/03/27 00:00:16;;;;;;;3.83;3.30;;;10.90;99.90;;;;;;5060874;28;20215;-70
2024/03/27 00:02:41;;;;;;;6.00;5.23;;;10.90;99.90;;;;;;5056481;28;20281;-71
2024/03/27 00:05:07;;;;;;;6.50;5.43;;;10.90;99.90;;;;;;5059504;28;20223;-71
2024/03/27 00:07:33;;;;;;;5.57;5.03;;;10.90;99.90;;;;;;5046503;28;20261;-72
2024/03/27 00:09:59;;;;;;;7.00;5.60;;;10.90;99.90;;;;;;5059993;28;20931;-69
2024/03/27 00:12:24;;;;;;;7.33;6.63;;;10.90;99.90;;;;;;5055562;28;20230;-68
2024/03/27 00:14:50;;;;;;;7.77;6.97;;;10.90;99.90;;;;;;5060320;28;20222;-70
2024/03/27 00:17:16;;;;;;;7.70;7.00;;;10.80;99.90;;;;;;5043432;28;20239;-69
2024/03/27 00:19:42;;;;;;;11.50;7.53;;;10.80;99.90;;;;;;5055290;28;20216;-70
2024/03/27 00:22:08;;;;;;;6.43;5.77;;;10.80;99.90;;;;;;5060258;28;20211;-69
2024/03/27 00:24:34;;;;;;;5.20;4.73;;;10.70;99.90;;;;;;5056841;28;20223;-69
2024/03/27 00:26:59;;;;;;;6.97;5.23;;;10.80;99.90;;;;;;5059726;28;20468;-70
2024/03/27 00:29:25;;;;;;;6.53;5.83;;;10.80;99.90;;;;;;5053594;28;20462;-69
2024/03/27 00:31:51;;;;;;;8.43;6.53;;;10.80;99.90;;;;;;5056102;28;20227;-68
2024/03/27 00:34:16;;;;;;;5.50;5.00;;;10.80;99.90;;;;;;5055842;28;20218;-68
2024/03/27 00:36:42;;;;;;;7.63;6.87;;;10.80;99.90;;;;;;5056020;28;20207;-70
2024/03/27 00:39:09;;;;;;;7.07;6.20;;;10.80;99.90;;;;;;5042951;28;20829;-69
2024/03/27 00:41:34;;;;;;;7.53;5.40;;;10.80;99.90;;;;;;5055246;28;20211;-69
2024/03/27 00:44:00;;;;;;;7.77;6.97;;;10.80;99.90;;;;;;5061840;28;20530;-68
2024/03/27 00:46:26;;;;;;;9.20;7.83;;;10.80;99.90;;;;;;5056539;28;20230;-70
2024/03/27 00:48:51;;;;;;;9.03;6.20;;;10.70;99.90;;;;;;5058841;28;20254;-69
2024/03/27 00:51:17;;;;;;;6.20;4.80;;;10.60;99.90;;;;;;5042109;28;20294;-68
2024/03/27 00:53:43;;;;;;;8.07;7.37;;;10.60;99.90;;;;;;5058465;28;21772;-69
2024/03/27 00:56:09;;;;;;;8.37;7.63;;;10.60;99.90;;;;;;5061337;28;20223;-70
2024/03/27 00:58:34;;;;;;;6.13;5.53;;;10.60;99.90;;;;;;5053769;28;20222;-70
2024/03/27 01:01:00;;;;;;;6.30;5.40;;;10.50;99.90;;;;;;5060491;28;20203;-71
2024/03/27 01:03:26;;;;;;;5.00;4.50;;;10.50;99.90;;;;;;5054018;28;20233;-71
2024/03/27 01:05:52;;;;;;;5.17;4.67;;;10.50;99.90;;;;;;5060070;28;20272;-71
2024/03/27 01:08:20;;;;;;;4.70;3.70;;;10.50;99.90;;;;;;5057356;28;20481;-70
2024/03/27 01:10:46;;;;;;;3.53;3.07;;;10.40;99.90;;;;;;5058995;28;20457;-70
2024/03/27 01:13:17;;;;;;;4.83;3.43;;;10.40;99.90;;;;;;5060412;28;20466;-71
2024/03/27 01:15:51;;;;;;;4.20;3.33;;;10.40;99.90;;;;;;5048568;28;20251;-70
2024/03/27 01:18:17;;;;;;;4.20;3.13;;;10.40;99.90;;;;;;5057535;28;20442;-71
2024/03/27 01:20:46;;;;;;;3.97;3.20;;;10.40;99.90;;;;;;5045124;28;20452;-70
2024/03/27 01:23:12;;;;;;;8.20;3.77;;;10.40;99.90;;;;;;5060189;28;20203;-70
2024/03/27 01:25:39;;;;;;;5.00;3.90;;;10.40;99.90;;;;;;5055270;28;20450;-70
2024/03/27 01:28:05;;;;;;;4.20;3.50;;;10.40;99.90;;;;;;5057648;28;20465;-70
2024/03/27 01:30:31;;;;;;;3.97;3.50;;;10.30;99.90;;;;;;5052381;28;20476;-72
2024/03/27 01:32:57;;;;;;;3.70;3.40;;;10.20;99.90;;;;;;5058745;28;20449;-73
2024/03/27 01:35:24;;;;;;;5.43;3.30;;;10.20;99.90;;;;;;5051614;28;20462;-73
2024/03/27 01:37:50;;;;;;;4.00;3.30;;;10.10;99.90;;;;;;5039376;28;20449;-73
2024/03/27 01:40:15;;;;;;;3.90;3.03;;;10.10;99.90;;;;;;5059917;28;21062;-72
2024/03/27 01:42:41;;;;;;;6.30;4.00;;;10.20;99.90;;;;;;5053465;28;20229;-72
2024/03/27 01:45:12;;;;;;;3.83;3.20;;;10.10;99.90;;;;;;5058505;28;20219;-73
2024/03/27 01:47:38;;;;;;;3.80;3.30;;;10.00;99.90;;;;;;5056599;28;20236;-72
2024/03/27 01:50:05;;;;;;;4.13;3.37;;;10.00;99.90;;;;;;5055613;28;20983;-72
2024/03/27 01:52:34;;;;;;;4.40;4.00;;;10.00;99.90;;;;;;5053849;28;20449;-72
2024/03/27 01:54:59;;;;;;;5.17;3.60;;;10.10;99.90;;;;;;5059737;28;20487;-72
2024/03/27 01:57:28;;;;;;;4.40;3.40;;;10.00;99.90;;;;;;5053434;28;20450;-72
2024/03/27 01:59:53;;;;;;;5.90;3.40;;;10.00;99.90;;;;;;5058016;28;20577;-71
2024/03/27 02:02:19;;;;;;;5.43;3.53;;;10.00;99.90;;;;;;5040483;28;20453;-73
2024/03/27 02:04:45;;;;;;;6.73;3.60;;;10.00;99.90;;;;;;5058164;28;20226;-72
2024/03/27 02:07:11;;;;;;;5.83;4.00;;;9.90;99.90;;;;;;5058160;28;20226;-72
2024/03/27 02:09:37;;;;;;;4.07;3.67;;;9.80;99.90;;;;;;5056000;28;20276;-72
2024/03/27 02:12:03;;;;;;;7.93;3.70;;;9.90;99.90;;;;;;5073763;28;20958;-72
2024/03/27 02:14:33;;;;;;;4.80;3.57;;;9.90;99.90;;;;;;5054919;28;20227;-70
2024/03/27 02:16:59;;;;;;;5.30;3.70;;;9.90;99.90;;;;;;5059608;28;20492;-73
2024/03/27 02:19:24;;;;;;;4.53;4.07;;;9.80;99.90;;;;;;5037389;28;20531;-71
2024/03/27 02:21:50;;;;;;;5.57;4.30;;;9.80;99.90;;;;;;5059531;28;20211;-72
2024/03/27 02:24:35;;;;;;;3.80;3.40;;;9.80;99.90;;;;;;5059927;28;20219;-72
2024/03/27 02:27:01;;;;;;;5.17;3.57;;;9.80;99.90;;;;;;5055850;28;20214;-71
2024/03/27 02:29:26;;;;;;;4.73;3.77;;;9.80;99.90;;;;;;5056435;28;20966;-72
2024/03/27 02:31:52;;;;;;;3.30;2.93;;;9.80;99.90;;;;;;5055625;28;20222;-71
2024/03/27 02:34:18;;;;;;;5.63;4.17;;;9.70;99.90;;;;;;5057431;28;20301;-72
2024/03/27 02:36:43;;;;;;;5.83;4.17;;;9.70;99.90;;;;;;5054048;28;20306;-72
2024/03/27 02:39:09;;;;;;;4.20;3.80;;;9.70;99.90;;;;;;5043014;28;20696;-73
2024/03/27 02:41:35;;;;;;;5.17;3.77;;;9.70;99.90;;;;;;5055342;28;20212;-72
2024/03/27 02:44:00;;;;;;;5.77;4.20;;;9.70;99.90;;;;;;5058851;28;20258;-72
2024/03/27 02:46:26;;;;;;;4.50;3.70;;;9.70;99.90;;;;;;5055104;28;20218;-72
2024/03/27 02:48:51;;;;;;;6.17;4.20;;;9.70;99.90;;;;;;5058810;28;20211;-71
2024/03/27 02:51:17;;;;;;;6.70;4.20;;;9.70;99.90;;;;;;5057448;28;20218;-72
2024/03/27 02:53:43;;;;;;;6.57;4.20;;;9.60;99.90;;;;;;5055810;28;20349;-70
2024/03/27 02:56:08;;;;;;;5.43;4.60;;;9.50;99.90;;;;;;5060423;28;20688;-73
2024/03/27 02:58:34;;;;;;;4.57;4.07;;;9.50;99.90;;;;;;5051273;28;20299;-72
2024/03/27 03:01:00;;;;;;;5.97;4.90;;;9.50;99.90;;;;;;5062812;28;20218;-72
2024/03/27 03:03:25;;;;;;;8.03;5.20;;;9.60;99.90;;;;;;5058780;28;20211;-73
2024/03/27 03:05:51;;;;;;;6.60;4.90;;;9.60;99.90;;;;;;5061794;28;20219;-72
2024/03/27 03:08:16;;;;;;;5.60;4.00;;;9.50;99.90;;;;;;5063795;28;20211;-72
2024/03/27 03:10:42;;;;;;;9.00;4.70;;;9.50;99.90;;;;;;5042837;28;20657;-72
2024/03/27 03:13:08;;;;;;;5.80;4.83;;;9.50;99.90;;;;;;5064178;28;20577;-73
2024/03/27 03:15:33;;;;;;;7.60;4.90;;;9.50;99.90;;;;;;5055818;28;20223;-74
2024/03/27 03:17:59;;;;;;;5.50;4.67;;;9.40;99.90;;;;;;5058936;28;20690;-72
2024/03/27 03:20:25;;;;;;;6.20;4.27;;;9.50;99.90;;;;;;5055826;28;20261;-71
2024/03/27 03:22:52;;;;;;;5.33;4.30;;;9.40;99.90;;;;;;5061371;28;20215;-72
2024/03/27 03:25:18;;;;;;;4.90;4.33;;;9.40;99.90;;;;;;5061701;28;20759;-70
2024/03/27 03:27:44;;;;;;;7.37;5.27;;;9.40;99.90;;;;;;5059873;28;20495;-72
2024/03/27 03:30:10;;;;;;;6.67;4.93;;;9.30;99.90;;;;;;5043046;28;20460;-72
2024/03/27 03:32:35;;;;;;;7.63;4.90;;;9.30;99.90;;;;;;5057777;28;20226;-72
2024/03/27 03:35:01;;;;;;;5.73;4.03;;;9.30;99.90;;;;;;5059474;28;20546;-73
2024/03/27 03:37:27;;;;;;;5.70;5.03;;;9.30;99.90;;;;;;5054796;28;20571;-71
2024/03/27 03:39:52;;;;;;;8.00;5.10;;;9.20;99.90;;;;;;5045294;28;20238;-70
2024/03/27 03:42:18;;;;;;;4.53;3.80;;;9.20;99.90;;;;;;5060573;28;20239;-72
2024/03/27 03:44:44;;;;;;;8.47;5.67;;;9.10;99.90;;;;;;5042444;28;20230;-69
2024/03/27 03:47:10;;;;;;;6.77;4.37;;;9.10;99.90;;;;;;5049260;28;20465;-72
2024/03/27 03:49:36;;;;;;;7.03;5.10;;;9.10;99.90;;;;;;5057465;28;20461;-72
2024/03/27 03:52:02;;;;;;;6.03;4.67;;;9.10;99.90;;;;;;5061236;28;20246;-73
2024/03/27 03:54:28;;;;;;;10.20;4.77;;;9.00;99.90;;;;;;5055563;28;20223;-73
2024/03/27 03:56:54;;;;;;;6.90;4.80;;;9.00;99.90;;;;;;5055231;28;20456;-71
2024/03/27 03:59:20;;;;;;;4.87;4.37;;;9.00;99.90;;;;;;5058047;28;20592;-71
2024/03/27 04:01:45;;;;;;;6.17;4.57;;;9.10;99.90;;;;;;5045185;28;20442;-72
2024/03/27 04:04:11;;;;;;;8.27;5.00;;;9.10;99.90;;;;;;5059359;28;20484;-70
2024/03/27 04:06:37;;;;;;;7.00;4.60;;;9.10;99.90;;;;;;5039233;28;20234;-72
2024/03/27 04:09:03;;;;;;;8.10;5.10;;;9.00;99.90;;;;;;5058963;28;20219;-72
2024/03/27 04:11:29;;;;;;;5.70;4.63;;;9.00;99.90;;;;;;5057048;28;20457;-72
2024/03/27 04:13:55;;;;;;;5.07;4.37;;;9.00;99.90;;;;;;5061423;28;20484;-72
2024/03/27 04:16:20;;;;;;;4.70;4.27;;;9.00;99.90;;;;;;5057417;28;20324;-72
2024/03/27 04:18:46;;;;;;;6.27;4.73;;;9.00;99.90;;;;;;5060216;28;20677;-71
2024/03/27 04:21:12;;;;;;;5.60;4.30;;;8.90;99.90;;;;;;5040940;28;20254;-72
2024/03/27 04:23:37;;;;;;;4.77;4.17;;;8.90;99.90;;;;;;5056857;28;20712;-73
2024/03/27 04:26:04;;;;;;;6.17;4.43;;;8.90;99.90;;;;;;5058349;28;20219;-71
2024/03/27 04:28:30;;;;;;;6.23;4.43;;;8.80;99.90;;;;;;5055414;28;20211;-72
2024/03/27 04:30:56;;;;;;;6.63;4.20;;;8.80;99.90;;;;;;5061712;28;20463;-72
2024/03/27 04:33:22;;;;;;;5.23;4.37;;;8.80;99.90;;;;;;5058030;28;20489;-73
2024/03/27 04:35:48;;;;;;;5.17;3.80;;;8.80;99.90;;;;;;5042452;28;20599;-72
2024/03/27 04:38:14;;;;;;;6.00;4.50;;;8.80;99.90;;;;;;5059983;28;21021;-72
2024/03/27 04:40:40;;;;;;;6.37;4.00;;;8.70;99.90;;;;;;5055961;28;20215;-72
2024/03/27 04:43:06;;;;;;;4.87;4.27;;;8.60;99.90;;;;;;5041333;28;20460;-72
2024/03/27 04:45:32;;;;;;;6.73;4.20;;;8.60;99.90;;;;;;5057347;28;20487;-72
2024/03/27 04:47:57;;;;;;;5.83;3.83;;;8.60;99.90;;;;;;5060746;28;20221;-72
2024/03/27 04:50:23;;;;;;;7.10;4.43;;;8.60;99.90;;;;;;5054802;28;20260;-72
2024/03/27 04:52:49;;;;;;;7.77;4.40;;;8.60;99.90;;;;;;5059491;28;20211;-72
2024/03/27 04:55:15;;;;;;;4.00;3.60;;;8.60;99.90;;;;;;5061076;28;20321;-72
2024/03/27 04:57:41;;;;;;;5.47;4.80;;;8.60;99.90;;;;;;5054574;28;20463;-71
2024/03/27 05:00:07;;;;;;;6.60;4.57;;;8.60;99.90;;;;;;5059836;28;20462;-72
2024/03/27 05:02:33;;;;;;;7.83;4.57;;;8.70;99.90;;;;;;5053725;28;20247;-72
2024/03/27 05:04:59;;;;;;;4.53;3.90;;;8.60;99.90;;;;;;5058234;28;20564;-72
2024/03/27 05:07:25;;;;;;;5.50;4.57;;;8.40;99.90;;;;;;5054047;28;20565;-71
2024/03/27 05:09:51;;;;;;;5.80;4.70;;;8.50;99.90;;;;;;5058713;28;20225;-71
2024/03/27 05:12:16;;;;;;;6.50;4.20;;;8.40;99.90;;;;;;5057195;28;20540;-72
2024/03/27 05:14:42;;;;;;;10.77;4.70;;;8.50;99.90;;;;;;5054911;28;20227;-71
2024/03/27 05:17:08;;;;;;;7.90;6.00;;;8.40;99.90;;;;;;5044636;28;20214;-72
2024/03/27 05:19:35;;;;;;;9.40;6.33;;;8.30;99.90;;;;;;5056298;28;20302;-72
2024/03/27 05:22:00;;;;;;;7.80;5.53;;;8.20;99.90;;;;;;5058578;28;20219;-72
2024/03/27 05:24:26;;;;;;;7.43;5.27;;;8.10;99.90;;;;;;5053815;28;20470;-72
2024/03/27 05:26:52;;;;;;;7.80;5.40;;;8.10;99.90;;;;;;5057771;28;20211;-72
2024/03/27 05:29:18;;;;;;;5.97;4.90;;;7.90;99.90;;;;;;5057553;28;20298;-72
2024/03/27 05:31:56;;;;;;;8.17;5.57;;;7.70;99.90;;;;;;5056749;28;20215;-72
2024/03/27 05:34:22;;;;;;;8.70;5.83;;;7.50;99.90;;;;;;5051287;28;20227;-73
2024/03/27 05:36:48;;;;;;;10.07;5.63;;;7.50;99.90;;;;;;5055877;28;20549;-71
2024/03/27 05:39:14;;;;;;;7.43;5.27;;;7.70;99.90;;;;;;5060326;28;20557;-73
2024/03/27 05:41:40;;;;;;;5.10;4.60;;;7.80;99.90;;;;;;5059905;28;20238;-72
2024/03/27 05:44:10;;;;;;;8.73;5.67;;;7.80;99.90;;;;;;5049484;28;20223;-73
2024/03/27 05:46:40;;;;;;;7.03;6.03;;;7.80;99.90;;;;;;5063947;28;20450;-72
2024/03/27 05:49:06;;;;;;;17.43;6.03;;;7.70;99.90;;;;;;5060920;28;20985;-71
2024/03/27 05:51:33;;;;;;;7.30;5.37;;;7.70;99.90;;;;;;5060551;28;20457;-71
2024/03/27 05:53:59;;;;;;;8.27;5.63;;;7.80;99.90;;;;;;5048048;28;20654;-72
2024/03/27 05:56:25;;;;;;;8.27;5.53;;;7.60;99.90;;;;;;5064976;28;20442;-72
2024/03/27 05:58:51;;;;;;;9.90;6.73;;;7.40;99.90;;;;;;5062586;28;20848;-71
2024/03/27 06:01:17;;;;;;;10.57;6.67;;;7.40;99.90;;;;;;5046333;28;20235;-72
2024/03/27 06:03:47;;;;;;;5.93;5.23;;;7.50;99.90;;;;;;5065407;28;20504;-72
2024/03/27 06:06:13;;;;;;;9.00;6.40;;;7.60;99.90;;;;;;5046098;28;20507;-72
2024/03/27 06:08:38;;;;;;;7.00;5.80;;;7.60;99.90;;;;;;5062172;28;20496;-71
2024/03/27 06:11:04;;;;;;;8.27;5.30;;;7.60;99.90;;;;;;5062798;28;20301;-71
2024/03/27 06:13:30;;;;;;;7.53;5.17;;;7.60;99.90;;;;;;5066500;28;20220;-72
2024/03/27 06:15:55;;;;;;;7.57;5.17;;;7.70;99.90;;;;;;5081006;28;20219;-72
2024/03/27 06:18:21;;;;;;;7.43;5.17;;;7.90;99.90;;;;;;5063960;28;20258;-71
2024/03/27 06:20:47;;;;;;;5.77;4.90;;;8.00;99.90;;;;;;5064892;28;20219;-72
2024/03/27 06:23:13;;;;;;;7.90;5.13;;;8.10;99.90;;;;;;5063780;28;20219;-72
2024/03/27 06:25:40;;;;;;;9.47;4.50;;;8.20;99.90;;;;;;5062780;28;20834;-71
2024/03/27 06:28:06;;;;;;;5.00;4.50;;;8.20;99.90;;;;;;5062862;28;20243;-72
2024/03/27 06:30:34;;;;;;;8.53;4.90;;;8.30;99.90;;;;;;5061129;28;20884;-72
2024/03/27 06:32:59;;;;;;;6.60;4.50;;;8.30;99.90;;;;;;5061831;28;20284;-72
2024/03/27 06:35:26;;;;;;;6.13;4.30;;;8.30;99.90;;;;;;5042461;28;21018;-73
2024/03/27 06:37:51;;;;;;;6.10;4.23;;;8.40;99.90;;;;;;5067277;28;20251;-72
2024/03/27 06:40:17;;;;;;;5.00;4.10;;;8.40;99.90;;;;;;5069135;28;20510;-72
2024/03/27 06:42:43;;;;;;;5.47;4.80;;;8.40;99.90;;;;;;5064625;28;20217;-72
2024/03/27 06:45:08;;;;;;;6.60;4.10;;;8.40;99.90;;;;;;5067228;28;20211;-72
2024/03/27 06:47:34;;;;;;;7.23;4.70;;;8.40;99.90;;;;;;5067379;28;20716;-73
2024/03/27 06:50:00;;;;;;;5.13;4.57;;;8.40;99.90;;;;;;5067904;28;20221;-71
2024/03/27 06:52:26;;;;;;;6.80;4.43;;;8.30;99.90;;;;;;5047702;28;20219;-72
2024/03/27 06:54:51;;;;;;;8.77;5.03;;;8.30;99.90;;;;;;5067507;28;20234;-72
2024/03/27 06:57:18;;;;;;;5.87;4.73;;;8.40;99.90;;;;;;5064433;28;20453;-71
2024/03/27 06:59:44;;;;;;;4.87;3.93;;;8.40;99.90;;;;;;5065774;28;20234;-73
2024/03/27 07:02:10;;;;;;;10.60;5.37;;;8.50;99.90;;;;;;5066533;28;20457;-71
2024/03/27 07:04:36;;;;;;;6.27;3.93;;;8.50;99.90;;;;;;5082588;28;20495;-71
2024/03/27 07:07:02;;;;;;;5.47;4.30;;;8.50;99.90;;;;;;5066622;28;20593;-72
2024/03/27 07:09:29;;;;;;;8.03;5.00;;;8.50;99.90;;;;;;5068924;28;20227;-72
2024/03/27 07:11:54;;;;;;;4.67;4.00;;;8.50;99.90;;;;;;5065395;28;20464;-73
2024/03/27 07:14:20;;;;;;;7.30;4.57;;;8.60;99.90;;;;;;5066199;28;20469;-73
2024/03/27 07:16:45;;;;;;;7.17;3.97;;;8.60;99.90;;;;;;5050938;28;20716;-72
2024/03/27 07:19:11;;;;;;;5.23;4.67;;;8.60;99.90;;;;;;5067648;28;20210;-72
2024/03/27 07:21:37;;;;;;;5.90;4.83;;;8.60;99.90;;;;;;5064091;28;20212;-71
2024/03/27 07:24:04;;;;;;;6.07;4.77;;;8.60;99.90;;;;;;5066872;28;20230;-72
2024/03/27 07:26:31;;;;;;;5.73;4.63;;;8.70;99.90;;;;;;5066762;28;20218;-71
2024/03/27 07:28:57;;;;;;;8.20;4.73;;;8.70;99.90;;;;;;5058390;28;20545;-70
2024/03/27 07:31:22;;;;;;;8.17;6.30;;;8.70;99.90;;;;;;5053536;28;21042;-72
2024/03/27 07:33:48;;;;;;;6.93;5.43;;;8.70;99.90;;;;;;5044497;28;20238;-72
2024/03/27 07:36:14;;;;;;;7.20;6.00;;;8.80;99.90;;;;;;5059227;28;20620;-72
2024/03/27 07:38:39;;;;;;;6.80;5.60;;;8.80;99.90;;;;;;5055907;28;22080;-71
2024/03/27 07:41:05;;;;;;;6.20;5.17;;;8.80;99.90;;;;;;5041621;28;20215;-70
2024/03/27 07:43:31;;;;;;;6.33;4.67;;;8.80;99.90;;;;;;5054838;28;20222;-72
2024/03/27 07:45:56;;;;;;;10.37;6.60;;;8.80;99.90;;;;;;5061254;28;20226;-70
2024/03/27 07:48:23;;;;;;;7.50;5.20;;;8.80;99.90;;;;;;5057370;28;20262;-71
2024/03/27 07:50:48;;;;;;;8.70;5.40;;;8.90;99.90;;;;;;5056627;28;20741;-69
2024/03/27 07:53:14;;;;;;;7.43;5.30;;;8.90;99.90;;;;;;5053459;28;20549;-70
2024/03/27 07:55:39;;;;;;;7.67;5.83;;;9.00;99.90;;;;;;5046397;28;20617;-72
2024/03/27 07:58:05;;;;;;;8.70;6.50;;;9.00;99.90;;;;;;5047555;28;20220;-72
2024/03/27 08:00:31;;;;;;;10.10;5.37;;;9.00;99.90;;;;;;5049709;28;20230;-70
2024/03/27 08:02:57;;;;;;;10.13;5.80;;;9.00;99.90;;;;;;5049541;28;20301;-71
2024/03/27 08:05:23;;;;;;;7.73;5.70;;;9.00;99.90;;;;;;5049794;28;20561;-70
2024/03/27 08:07:49;;;;;;;11.80;7.70;;;9.00;99.90;;;;;;5052882;28;20306;-72
2024/03/27 08:10:14;;;;;;;12.93;8.90;;;9.10;99.90;;;;;;5052648;28;20226;-72
2024/03/27 08:12:40;;;;;;;22.13;12.50;;;9.00;99.90;;;;;;5048138;28;20377;-71
2024/03/27 08:15:09;;;;;;;15.77;13.20;;;9.10;99.90;;;;;;5036762;28;20227;-71
2024/03/27 08:17:35;;;;;;;19.53;14.33;;;9.10;99.90;;;;;;5052168;28;20222;-72
2024/03/27 08:20:01;;;;;;;20.57;14.97;;;9.10;99.90;;;;;;5051155;28;20466;-72
2024/03/27 08:22:28;;;;;;;15.23;11.70;;;9.10;99.90;;;;;;5029132;28;20462;-73
2024/03/27 08:24:54;;;;;;;15.50;11.20;;;9.20;99.90;;;;;;5050187;28;20476;-72
2024/03/27 08:27:19;;;;;;;14.70;11.10;;;9.20;99.90;;;;;;5034667;28;20576;-71
2024/03/27 08:29:45;;;;;;;14.93;10.30;;;9.20;99.90;;;;;;5030427;28;20246;-72
2024/03/27 08:32:10;;;;;;;11.87;9.00;;;9.20;99.90;;;;;;5044861;28;20219;-70
2024/03/27 08:34:36;;;;;;;13.10;8.03;;;9.20;99.90;;;;;;5044620;28;20225;-71
2024/03/27 08:37:02;;;;;;;10.67;7.73;;;9.20;99.90;;;;;;5058796;28;20225;-71
2024/03/27 08:39:28;;;;;;;12.73;6.47;;;9.30;99.90;;;;;;5045804;28;20237;-68
2024/03/27 08:41:55;;;;;;;9.27;7.03;;;9.30;99.90;;;;;;5048393;28;20483;-68
2024/03/27 08:44:21;;;;;;;8.20;6.50;;;9.30;99.90;;;;;;5032410;28;20603;-70
2024/03/27 08:46:46;;;;;;;9.20;6.83;;;9.30;99.90;;;;;;5049332;28;20223;-71
2024/03/27 08:49:13;;;;;;;7.30;6.40;;;9.40;99.90;;;;;;5047590;28;20247;-69
2024/03/27 08:51:42;;;;;;;9.63;5.87;;;9.30;99.90;;;;;;5041698;28;20219;-69
2024/03/27 08:54:09;;;;;;;7.23;5.40;;;9.40;99.90;;;;;;5048376;28;20480;-70
2024/03/27 08:56:35;;;;;;;7.40;6.60;;;9.40;99.90;;;;;;5045708;28;20494;-71
2024/03/27 08:59:01;;;;;;;6.43;5.30;;;9.50;99.90;;;;;;5030932;28;20552;-71
2024/03/27 09:01:27;;;;;;;10.10;6.70;;;9.50;99.90;;;;;;5040952;28;20510;-70
2024/03/27 09:03:53;;;;;;;7.90;6.37;;;9.50;99.90;;;;;;5050895;28;20461;-68
2024/03/27 09:06:19;;;;;;;12.53;5.67;;;9.60;99.90;;;;;;5053656;28;20215;-70
2024/03/27 09:08:45;;;;;;;5.90;5.30;;;9.60;99.90;;;;;;5033748;28;20222;-71
2024/03/27 09:11:11;;;;;;;7.27;5.10;;;9.60;99.90;;;;;;5050783;28;20458;-70
2024/03/27 09:13:38;;;;;;;5.87;5.30;;;9.70;99.90;;;;;;5031894;28;20219;-70
2024/03/27 09:16:04;;;;;;;4.50;4.07;;;9.70;99.90;;;;;;5051336;28;20465;-70
2024/03/27 09:18:30;;;;;;;5.13;4.53;;;9.70;99.90;;;;;;5047564;28;20469;-70
2024/03/27 09:21:00;;;;;;;6.40;4.50;;;9.70;99.90;;;;;;5049413;28;20749;-70
2024/03/27 09:23:27;;;;;;;5.73;4.90;;;9.70;99.90;;;;;;5044935;28;20260;-72
2024/03/27 09:25:57;;;;;;;9.03;4.83;;;9.70;99.90;;;;;;5034185;28;20511;-70
2024/03/27 09:28:23;;;;;;;7.83;5.00;;;9.80;99.90;;;;;;5046345;28;20560;-71
2024/03/27 09:30:49;;;;;;;4.93;4.40;;;9.80;99.90;;;;;;5051931;28;20457;-70
2024/03/27 09:33:15;;;;;;;5.83;4.07;;;9.90;99.90;;;;;;5031211;28;20469;-70
2024/03/27 09:35:43;;;;;;;7.03;4.20;;;10.00;99.90;;;;;;5046826;28;20494;-70
2024/03/27 09:38:09;;;;;;;4.33;3.90;;;10.00;99.90;;;;;;5024192;28;20560;-69
2024/03/27 09:40:47;;;;;;;18.07;3.77;;;10.10;99.90;;;;;;5028815;28;20478;-71
2024/03/27 09:43:16;;;;;;;4.80;3.47;;;10.20;99.90;;;;;;5047194;28;20577;-71
2024/03/27 09:45:46;;;;;;;5.50;4.20;;;10.20;99.90;;;;;;5023782;28;20858;-70
2024/03/27 09:48:13;;;;;;;4.20;3.80;;;10.20;99.90;;;;;;5052442;28;20485;-70
2024/03/27 09:50:39;;;;;;;5.90;4.60;;;10.30;99.90;;;;;;5049649;28;20464;-71
2024/03/27 09:53:06;;;;;;;6.17;4.93;;;10.40;99.90;;;;;;5053642;28;20457;-69
2024/03/27 09:55:34;;;;;;;5.97;4.60;;;10.40;99.90;;;;;;5048255;28;20520;-69
2024/03/27 09:58:03;;;;;;;5.77;4.03;;;10.40;99.90;;;;;;5050787;28;20458;-69
2024/03/27 10:00:29;;;;;;;6.77;4.50;;;10.50;99.90;;;;;;5050944;28;20500;-69
2024/03/27 10:02:58;;;;;;;6.00;4.20;;;10.50;99.90;;;;;;5052755;28;20457;-69
2024/03/27 10:05:26;;;;;;;5.43;4.37;;;10.50;99.90;;;;;;5050675;28;20313;-71
2024/03/27 10:07:53;;;;;;;4.40;3.73;;;10.60;99.90;;;;;;5055940;28;20467;-67
2024/03/27 10:10:19;;;;;;;5.87;3.80;;;10.70;99.90;;;;;;5054376;28;20465;-68
2024/03/27 10:12:45;;;;;;;8.67;4.27;;;10.70;99.90;;;;;;5048545;28;21008;-68
2024/03/27 10:15:11;;;;;;;4.03;3.60;;;10.80;99.90;;;;;;5055142;28;20477;-70
2024/03/27 10:17:37;;;;;;;5.90;4.00;;;10.80;99.90;;;;;;5051846;28;20481;-69
2024/03/27 10:20:05;;;;;;;4.30;3.90;;;10.90;99.90;;;;;;5055490;28;20227;-69
2024/03/27 10:22:32;;;;;;;3.73;3.33;;;10.90;99.90;;;;;;5052193;28;20222;-68
2024/03/27 10:24:57;;;;;;;5.33;3.23;;;10.90;99.90;;;;;;5054250;28;20480;-69
2024/03/27 10:27:23;;;;;;;3.73;3.40;;;11.00;99.90;;;;;;5050162;28;20465;-68
2024/03/27 10:29:49;;;;;;;5.37;4.00;;;11.00;99.90;;;;;;5053999;28;20223;-69
2024/03/27 10:32:15;;;;;;;6.10;4.73;;;11.10;99.90;;;;;;5050233;28;20470;-69
2024/03/27 10:34:42;;;;;;;5.73;4.03;;;11.30;99.90;;;;;;5049532;28;20234;-69
2024/03/27 10:37:11;;;;;;;6.30;4.40;;;11.30;99.90;;;;;;5053451;28;20222;-69
2024/03/27 10:39:44;;;;;;;5.67;4.07;;;11.40;99.90;;;;;;5046180;28;20461;-69
2024/03/27 10:42:13;;;;;;;5.33;3.83;;;11.50;99.90;;;;;;5050653;28;20457;-67
2024/03/27 10:44:39;;;;;;;4.70;4.30;;;11.50;99.90;;;;;;5047652;28;21002;-69
2024/03/27 10:47:11;;;;;;;5.17;4.43;;;11.50;99.90;;;;;;5055313;28;20971;-69
2024/03/27 10:49:38;;;;;;;3.80;3.03;;;11.60;99.90;;;;;;5042622;28;20474;-68
2024/03/27 10:52:04;;;;;;;4.50;3.67;;;11.60;99.90;;;;;;5052222;28;20493;-70
2024/03/27 10:54:32;;;;;;;3.80;3.50;;;11.70;99.90;;;;;;5032115;28;20470;-69
2024/03/27 10:56:59;;;;;;;9.33;4.40;;;11.70;99.90;;;;;;5047121;28;20519;-72
2024/03/27 10:59:26;;;;;;;3.77;3.30;;;11.70;99.90;;;;;;5052886;28;20518;-73
2024/03/27 11:02:08;;;;;;;4.33;2.90;;;11.70;99.90;;;;;;5057364;28;20449;-72
2024/03/27 11:04:36;;;;;;;3.07;2.77;;;11.90;99.90;;;;;;5059054;28;20493;-72
2024/03/27 11:07:02;;;;;;;3.60;2.63;;;11.90;99.90;;;;;;5053548;28;20457;-72
2024/03/27 11:09:28;;;;;;;5.60;2.53;;;12.00;99.90;;;;;;5033573;28;20466;-71
2024/03/27 11:11:53;;;;;;;2.90;2.33;;;12.20;99.90;;;;;;5052634;28;20238;-72
2024/03/27 11:14:21;;;;;;;2.03;1.80;;;12.20;99.90;;;;;;5051932;28;20219;-68
2024/03/27 11:16:54;;;;;;;2.30;2.10;;;12.20;99.90;;;;;;5049603;28;20219;-70
2024/03/27 11:19:32;;;;;;;1.67;1.30;;;12.20;99.90;;;;;;5055178;28;20454;-70
2024/03/27 11:22:28;;;;;;;2.30;2.10;;;12.30;99.90;;;;;;5052954;28;20485;-70
2024/03/27 11:24:53;;;;;;;2.10;1.70;;;12.40;99.90;;;;;;5051462;28;20495;-68
2024/03/27 11:27:31;;;;;;;2.27;2.00;;;12.40;99.90;;;;;;5039066;28;20477;-68
2024/03/27 11:30:00;;;;;;;1.80;1.60;;;12.40;99.90;;;;;;5054915;28;20211;-71
2024/03/27 11:32:32;;;;;;;3.23;1.37;;;12.50;99.90;;;;;;5050686;28;20674;-72
2024/03/27 11:34:59;;;;;;;1.80;1.70;;;12.40;99.90;;;;;;5057415;28;20530;-72
2024/03/27 11:37:25;;;;;;;1.83;1.73;;;12.50;99.90;;;;;;5053135;28;20469;-72
2024/03/27 11:39:50;;;;;;;1.67;1.53;;;12.50;99.90;;;;;;5056323;28;20488;-71
2024/03/27 11:42:16;;;;;;;1.53;1.43;;;12.50;99.90;;;;;;5056559;28;20546;-73
2024/03/27 11:44:41;;;;;;;2.03;1.50;;;12.50;99.90;;;;;;5052464;28;20303;-70
2024/03/27 11:47:08;;;;;;;2.00;1.80;;;12.50;99.90;;;;;;5040800;28;20223;-69
2024/03/27 11:49:34;;;;;;;1.83;1.70;;;12.60;99.90;;;;;;5038797;28;20233;-71
2024/03/27 11:52:00;;;;;;;2.07;1.73;;;12.80;99.90;;;;;;5053972;28;20457;-68
2024/03/27 11:54:29;;;;;;;1.50;1.40;;;12.80;99.90;;;;;;5052730;28;20296;-69
2024/03/27 11:56:54;;;;;;;1.93;1.50;;;12.80;99.90;;;;;;5054839;28;20610;-69
2024/03/27 11:59:20;;;;;;;1.83;1.50;;;12.90;99.90;;;;;;5056590;28;20546;-69
2024/03/27 12:01:46;;;;;;;2.60;1.63;;;12.90;99.90;;;;;;5034946;28;20218;-70
2024/03/27 12:04:12;;;;;;;1.77;1.60;;;12.90;99.90;;;;;;5056987;28;20305;-70
2024/03/27 12:06:39;;;;;;;2.83;1.50;;;12.80;99.90;;;;;;5053447;28;20226;-71
2024/03/27 12:09:05;;;;;;;2.23;1.93;;;12.90;99.90;;;;;;5057167;28;20470;-70
2024/03/27 12:11:30;;;;;;;1.40;1.30;;;12.90;99.90;;;;;;5030022;28;20461;-69
2024/03/27 12:13:56;;;;;;;1.43;1.33;;;12.80;99.90;;;;;;5055623;28;20222;-69
2024/03/27 12:16:22;;;;;;;1.47;1.37;;;12.80;99.90;;;;;;5059672;28;20222;-69
2024/03/27 12:18:47;;;;;;;1.60;1.27;;;12.90;99.90;;;;;;5054036;28;20218;-69
2024/03/27 12:21:15;;;;;;;1.70;1.60;;;13.10;99.90;;;;;;5056716;28;20318;-69
2024/03/27 12:23:43;;;;;;;3.43;1.50;;;13.20;99.90;;;;;;5048736;28;20299;-70
2024/03/27 12:26:19;;;;;;;3.57;1.50;;;13.30;99.90;;;;;;5054372;28;20453;-70
2024/03/27 12:28:51;;;;;;;2.80;1.33;;;13.40;99.90;;;;;;5052947;28;20448;-69
2024/03/27 12:31:22;;;;;;;1.77;1.63;;;13.40;99.90;;;;;;5058335;28;20453;-70
2024/03/27 12:33:47;;;;;;;1.70;1.60;;;13.40;99.90;;;;;;5052511;28;20458;-70
2024/03/27 12:36:13;;;;;;;1.27;1.17;;;13.50;99.90;;;;;;5057721;28;20464;-69
2024/03/27 12:38:40;;;;;;;1.33;1.23;;;13.60;99.90;;;;;;5057650;28;20227;-68
2024/03/27 12:41:05;;;;;;;1.23;1.13;;;13.50;99.90;;;;;;5056592;28;20216;-68
2024/03/27 12:43:32;;;;;;;1.40;1.30;;;13.60;99.90;;;;;;5054551;28;20464;-70
2024/03/27 12:45:58;;;;;;;1.17;0.97;;;13.70;99.90;;;;;;5058911;28;20211;-70